Time;durP1;ratioP1;P1;durP2;ratioP2;P2;SDS_P1;SDS_P2;PMS_P1;PMS_P2;Temp;Humidity;BMP_temperature;BMP_pressure;BME280_temperature;BME280_humidity;BME280_pressure;Samples;Min_cycle;Max_cycle;Signal;HPM_P1;HPM_P2
2021/10/14 00:00:16;;;;;;;20.63;12.70;;;;;;;4.02;100.00;98681.03;5029802;28;20032;-74
2021/10/14 00:02:42;;;;;;;23.45;12.90;;;;;;;4.23;100.00;98702.91;5029824;28;20043;-73
2021/10/14 00:05:07;;;;;;;19.48;10.85;;;;;;;4.19;100.00;98696.34;5029654;28;20453;-73
2021/10/14 00:07:33;;;;;;;17.35;11.23;;;;;;;4.12;100.00;98686.69;5029695;28;20036;-74
2021/10/14 00:09:58;;;;;;;20.13;11.18;;;;;;;4.02;100.00;98694.56;5029823;28;20032;-73
2021/10/14 00:12:24;;;;;;;24.83;10.88;;;;;;;3.89;100.00;98698.31;5029571;28;20502;-74
2021/10/14 00:14:49;;;;;;;18.55;10.75;;;;;;;3.99;100.00;98695.88;5029570;28;20044;-74
2021/10/14 00:17:14;;;;;;;20.25;11.30;;;;;;;3.97;100.00;98691.75;5029661;28;20433;-75
2021/10/14 00:19:40;;;;;;;22.65;11.00;;;;;;;3.99;100.00;98703.16;5034932;28;20039;-74
2021/10/14 00:22:06;;;;;;;22.92;10.90;;;;;;;4.04;100.00;98704.09;5036357;28;20068;-74
2021/10/14 00:24:32;;;;;;;15.23;10.50;;;;;;;3.93;100.00;98696.81;5043025;28;20044;-73
2021/10/14 00:26:57;;;;;;;21.08;10.55;;;;;;;3.90;100.00;98689.16;5049681;28;20017;-73
2021/10/14 00:29:23;;;;;;;18.40;10.07;;;;;;;3.94;100.00;98701.19;5049351;28;20525;-74
2021/10/14 00:31:48;;;;;;;20.50;10.43;;;;;;;3.79;100.00;98696.19;5052495;28;20017;-73
2021/10/14 00:34:14;;;;;;;21.60;11.30;;;;;;;3.83;100.00;98698.44;5053138;28;20402;-75
2021/10/14 00:36:39;;;;;;;18.73;10.77;;;;;;;3.72;100.00;98700.09;5051704;28;20061;-74
2021/10/14 00:39:19;;;;;;;20.08;11.30;;;;;;;3.73;100.00;98699.00;5055387;28;20021;-76
2021/10/14 00:41:44;;;;;;;16.80;10.63;;;;;;;3.78;100.00;98701.84;5053414;28;20078;-75
2021/10/14 00:44:10;;;;;;;17.83;10.63;;;;;;;3.79;100.00;98692.66;5053143;28;20037;-74
2021/10/14 00:46:35;;;;;;;17.15;10.48;;;;;;;3.73;100.00;98693.59;5053274;28;20047;-74
2021/10/14 00:49:01;;;;;;;15.70;9.75;;;;;;;3.83;100.00;98699.25;5050068;28;20025;-75
2021/10/14 00:51:27;;;;;;;20.08;9.88;;;;;;;3.86;100.00;98698.78;5042135;28;20036;-75
2021/10/14 00:53:52;;;;;;;17.92;10.35;;;;;;;3.89;100.00;98694.78;5042679;28;20036;-73
2021/10/14 00:56:18;;;;;;;19.77;11.25;;;;;;;3.94;100.00;98690.34;5042874;28;20029;-74
2021/10/14 00:58:44;;;;;;;19.20;11.82;;;;;;;3.91;100.00;98682.69;5045470;28;20056;-73
2021/10/14 01:01:10;;;;;;;20.35;11.07;;;;;;;3.98;100.00;98694.22;5041159;28;20100;-74
2021/10/14 01:03:35;;;;;;;19.58;11.85;;;;;;;4.18;100.00;98697.41;5035543;28;20034;-74
2021/10/14 01:06:01;;;;;;;16.02;9.35;;;;;;;4.23;100.00;98697.50;5038141;28;20029;-75
2021/10/14 01:08:26;;;;;;;19.27;9.98;;;;;;;4.22;100.00;98679.63;5041033;28;20028;-74
2021/10/14 01:10:52;;;;;;;15.85;10.63;;;;;;;4.20;100.00;98679.03;5036491;28;20057;-74
2021/10/14 01:13:18;;;;;;;18.00;10.15;;;;;;;4.33;100.00;98689.63;5032349;28;20112;-74
2021/10/14 01:15:47;;;;;;;18.33;10.43;;;;;;;4.25;100.00;98675.63;5032225;28;20087;-74
2021/10/14 01:18:13;;;;;;;18.63;10.38;;;;;;;4.29;100.00;98688.44;5032381;28;20030;-74
2021/10/14 01:20:38;;;;;;;17.25;11.15;;;;;;;4.23;100.00;98683.97;5032415;28;20040;-74
2021/10/14 01:23:04;;;;;;;20.25;11.80;;;;;;;4.13;100.00;98689.19;5032404;28;20049;-73
2021/10/14 01:25:31;;;;;;;19.10;12.38;;;;;;;4.08;100.00;98689.03;5032014;28;20021;-74
2021/10/14 01:27:56;;;;;;;21.00;12.18;;;;;;;4.10;100.00;98680.69;5032486;28;20029;-73
2021/10/14 01:30:22;;;;;;;23.55;12.35;;;;;;;4.18;100.00;98692.00;5032124;28;20032;-74
2021/10/14 01:32:49;;;;;;;18.52;11.80;;;;;;;4.22;100.00;98682.34;5042427;28;20478;-74
2021/10/14 01:35:16;;;;;;;21.35;11.75;;;;;;;4.22;100.00;98692.34;5037936;28;20021;-74
2021/10/14 01:37:41;;;;;;;19.58;11.65;;;;;;;4.27;100.00;98679.75;5033848;28;20026;-75
2021/10/14 01:40:07;;;;;;;26.35;13.60;;;;;;;4.15;100.00;98691.63;5031918;28;20042;-73
2021/10/14 01:42:33;;;;;;;22.05;12.18;;;;;;;4.21;100.00;98680.69;5030815;28;20017;-74
2021/10/14 01:45:00;;;;;;;24.70;13.20;;;;;;;4.34;100.00;98682.31;5031877;28;20068;-74
2021/10/14 01:47:26;;;;;;;22.55;12.15;;;;;;;4.45;100.00;98696.94;5031906;28;20028;-73
2021/10/14 01:49:51;;;;;;;18.92;11.95;;;;;;;4.47;100.00;98695.63;5034147;28;20502;-73
2021/10/14 01:52:17;;;;;;;25.85;12.30;;;;;;;4.54;100.00;98690.06;5043350;28;20039;-74
2021/10/14 01:54:42;;;;;;;17.05;10.40;;;;;;;4.44;100.00;98695.25;5043030;28;20037;-73
2021/10/14 01:57:08;;;;;;;18.25;9.68;;;;;;;4.41;100.00;98696.56;5051928;28;20064;-74
2021/10/14 01:59:33;;;;;;;18.80;10.27;;;;;;;4.43;100.00;98686.31;5051671;28;20119;-73
2021/10/14 02:01:59;;;;;;;15.02;9.65;;;;;;;4.46;100.00;98685.00;5051371;28;20036;-74
2021/10/14 02:04:24;;;;;;;19.48;10.45;;;;;;;4.47;100.00;98676.66;5052698;28;20029;-75
2021/10/14 02:06:49;;;;;;;21.77;10.73;;;;;;;4.52;100.00;98682.19;5049874;28;20032;-74
2021/10/14 02:09:15;;;;;;;18.80;11.35;;;;;;;4.44;100.00;98670.91;5037592;28;20018;-74
2021/10/14 02:11:40;;;;;;;16.92;10.70;;;;;;;4.49;100.00;98669.09;5042214;28;20018;-74
2021/10/14 02:14:06;;;;;;;17.48;10.77;;;;;;;4.41;100.00;98680.31;5052148;28;20025;-74
2021/10/14 02:16:31;;;;;;;21.05;11.52;;;;;;;4.38;100.00;98679.97;5051911;28;20553;-74
2021/10/14 02:18:56;;;;;;;21.17;10.40;;;;;;;4.20;100.00;98684.44;5051512;28;20083;-73
2021/10/14 02:21:22;;;;;;;18.08;10.27;;;;;;;3.95;100.00;98685.72;5051550;28;20052;-75
2021/10/14 02:23:47;;;;;;;17.08;10.18;;;;;;;3.84;100.00;98690.09;5050464;28;20029;-75
2021/10/14 02:26:13;;;;;;;18.85;10.75;;;;;;;3.72;100.00;98678.44;5051683;28;20202;-73
2021/10/14 02:28:38;;;;;;;26.38;11.68;;;;;;;3.60;100.00;98688.44;5051429;28;20028;-74
2021/10/14 02:31:03;;;;;;;23.92;11.48;;;;;;;3.54;100.00;98690.16;5054510;28;20060;-75
2021/10/14 02:33:29;;;;;;;20.92;10.75;;;;;;;3.50;100.00;98689.00;5052038;28;20036;-74
2021/10/14 02:35:54;;;;;;;17.13;10.63;;;;;;;3.59;100.00;98698.41;5051260;28;20421;-74
2021/10/14 02:38:20;;;;;;;18.67;10.75;;;;;;;3.61;100.00;98703.56;5051315;28;20025;-75
2021/10/14 02:40:45;;;;;;;24.90;11.27;;;;;;;3.63;100.00;98705.00;5050309;28;20041;-74
2021/10/14 02:43:11;;;;;;;17.65;10.77;;;;;;;3.67;100.00;98689.13;5048409;28;20037;-74
2021/10/14 02:45:36;;;;;;;19.40;9.80;;;;;;;3.73;100.00;98689.03;5041403;28;20139;-75
2021/10/14 02:48:01;;;;;;;21.85;11.63;;;;;;;3.72;100.00;98689.25;5039041;28;20021;-75
2021/10/14 02:50:27;;;;;;;16.10;10.52;;;;;;;3.54;100.00;98698.28;5031102;28;20033;-73
2021/10/14 02:52:52;;;;;;;14.70;10.02;;;;;;;3.43;100.00;98687.44;5029226;28;20386;-75
2021/10/14 02:55:18;;;;;;;15.10;9.23;;;;;;;3.35;100.00;98690.47;5030938;28;20394;-74
2021/10/14 02:57:43;;;;;;;14.23;9.15;;;;;;;3.31;100.00;98695.53;5031678;28;20032;-74
2021/10/14 03:00:09;;;;;;;14.13;8.45;;;;;;;3.15;100.00;98685.34;5031580;28;20029;-75
2021/10/14 03:02:35;;;;;;;16.00;9.00;;;;;;;3.08;100.00;98698.97;5031633;28;20112;-75
2021/10/14 03:05:00;;;;;;;14.00;7.80;;;;;;;3.06;100.00;98700.25;5036216;28;20061;-75
2021/10/14 03:07:25;;;;;;;21.08;10.23;;;;;;;3.16;100.00;98700.53;5040695;28;20497;-75
2021/10/14 03:09:51;;;;;;;27.40;11.48;;;;;;;3.10;100.00;98696.03;5035857;28;20025;-75
2021/10/14 03:12:16;;;;;;;25.60;10.98;;;;;;;2.98;100.00;98701.38;5030531;28;20502;-73
2021/10/14 03:14:42;;;;;;;33.03;13.20;;;;;;;2.95;100.00;98701.84;5030730;28;20049;-75
2021/10/14 03:17:09;;;;;;;36.15;10.90;;;;;;;2.82;100.00;98702.00;5031401;28;20026;-74
2021/10/14 03:19:34;;;;;;;30.02;11.02;;;;;;;2.87;100.00;98707.56;5036240;28;20474;-74
2021/10/14 03:22:00;;;;;;;26.85;11.15;;;;;;;2.74;100.00;98702.31;5039912;28;20073;-75
2021/10/14 03:24:25;;;;;;;21.88;11.73;;;;;;;2.83;100.00;98708.22;5040354;28;20021;-74
2021/10/14 03:26:51;;;;;;;19.40;11.10;;;;;;;2.91;100.00;98710.63;5032938;28;20033;-75
2021/10/14 03:29:16;;;;;;;19.88;11.15;;;;;;;3.01;100.00;98706.31;5031176;28;20044;-74
2021/10/14 03:31:41;;;;;;;27.05;11.68;;;;;;;2.89;100.00;98710.84;5031941;28;20029;-75
2021/10/14 03:34:07;;;;;;;31.83;12.63;;;;;;;2.82;100.00;98712.81;5036549;28;20037;-74
2021/10/14 03:36:32;;;;;;;40.22;13.82;;;;;;;2.84;100.00;98721.53;5042679;28;20029;-75
2021/10/14 03:38:58;;;;;;;40.30;13.40;;;;;;;2.90;100.00;98719.78;5044475;28;20025;-76
2021/10/14 03:41:24;;;;;;;31.58;13.20;;;;;;;2.97;100.00;98713.25;5049976;28;20032;-76
2021/10/14 03:43:49;;;;;;;21.52;12.05;;;;;;;3.03;100.00;98709.63;5032519;28;20433;-74
2021/10/14 03:46:14;;;;;;;23.38;11.98;;;;;;;2.98;100.00;98709.47;5030506;28;20482;-74
2021/10/14 03:48:40;;;;;;;20.35;11.93;;;;;;;2.89;100.00;98724.34;5030291;28;20036;-75
2021/10/14 03:51:05;;;;;;;16.92;10.45;;;;;;;2.99;100.00;98727.34;5029449;28;20037;-74
2021/10/14 03:53:31;;;;;;;19.48;10.73;;;;;;;3.04;100.00;98716.66;5029957;28;20525;-75
2021/10/14 03:55:56;;;;;;;15.55;9.40;;;;;;;3.17;100.00;98716.50;5034657;28;20037;-74
2021/10/14 03:58:22;;;;;;;16.15;9.93;;;;;;;3.22;100.00;98716.66;5038648;28;20014;-75
2021/10/14 04:00:47;;;;;;;19.05;10.27;;;;;;;3.28;100.00;98730.28;5036448;28;20025;-75
2021/10/14 04:03:12;;;;;;;15.52;9.38;;;;;;;3.30;100.00;98726.31;5028233;28;20044;-74
2021/10/14 04:05:38;;;;;;;22.50;10.80;;;;;;;3.34;100.00;98729.38;5032272;28;20363;-73
2021/10/14 04:08:03;;;;;;;19.55;11.15;;;;;;;3.29;100.00;98729.25;5035170;28;20029;-74
2021/10/14 04:10:29;;;;;;;24.27;11.63;;;;;;;3.20;100.00;98726.03;5036518;28;20049;-74
2021/10/14 04:12:54;;;;;;;23.60;12.57;;;;;;;3.38;100.00;98728.69;5042285;28;20123;-74
2021/10/14 04:15:20;;;;;;;22.83;12.50;;;;;;;3.42;100.00;98727.16;5042978;28;20418;-74
2021/10/14 04:17:45;;;;;;;23.77;12.80;;;;;;;3.55;100.00;98731.56;5051717;28;20107;-74
2021/10/14 04:20:11;;;;;;;21.13;13.32;;;;;;;3.67;100.00;98733.22;5034814;28;20067;-75
2021/10/14 04:22:36;;;;;;;24.90;12.13;;;;;;;3.76;100.00;98728.31;5035191;28;20127;-73
2021/10/14 04:25:02;;;;;;;22.20;12.18;;;;;;;3.79;100.00;98744.06;5035139;28;20033;-74
2021/10/14 04:27:28;;;;;;;32.88;13.35;;;;;;;3.64;100.00;98727.47;5027150;28;20029;-75
2021/10/14 04:29:53;;;;;;;37.65;13.52;;;;;;;3.60;100.00;98731.69;5025360;28;20021;-74
2021/10/14 04:32:19;;;;;;;28.27;12.77;;;;;;;3.66;100.00;98736.19;5044021;28;20420;-75
2021/10/14 04:34:44;;;;;;;23.77;13.70;;;;;;;3.66;100.00;98733.47;5040028;28;20394;-74
2021/10/14 04:37:10;;;;;;;25.77;12.35;;;;;;;3.61;100.00;98730.63;5035867;28;20487;-73
2021/10/14 04:39:37;;;;;;;25.58;12.23;;;;;;;3.57;100.00;98722.16;5032172;28;20053;-74
2021/10/14 04:42:06;;;;;;;28.70;14.60;;;;;;;3.67;100.00;98737.81;5033265;28;20022;-73
2021/10/14 04:44:33;;;;;;;20.77;11.98;;;;;;;3.76;100.00;98741.81;5033193;28;20546;-73
2021/10/14 04:47:01;;;;;;;26.85;12.20;;;;;;;3.82;100.00;98742.81;5033218;28;20394;-74
2021/10/14 04:49:27;;;;;;;24.50;12.25;;;;;;;3.73;100.00;98743.13;5033333;28;20028;-74
2021/10/14 04:51:52;;;;;;;21.90;12.18;;;;;;;3.73;100.00;98745.00;5033172;28;20108;-74
2021/10/14 04:54:18;;;;;;;24.98;12.05;;;;;;;3.64;100.00;98749.09;5064698;28;20401;-74
2021/10/14 04:56:43;;;;;;;24.27;12.45;;;;;;;3.66;100.00;98747.84;5033422;28;20029;-74
2021/10/14 04:59:08;;;;;;;24.63;13.07;;;;;;;3.72;100.00;98756.91;5032949;28;20457;-73
2021/10/14 05:01:34;;;;;;;20.33;12.25;;;;;;;3.80;100.00;98759.25;5033149;28;20037;-75
2021/10/14 05:03:59;;;;;;;32.25;12.35;;;;;;;3.73;100.00;98750.41;5039052;28;20029;-74
2021/10/14 05:06:25;;;;;;;23.98;11.98;;;;;;;3.79;100.00;98752.19;5054547;28;20522;-73
2021/10/14 05:08:50;;;;;;;25.67;11.85;;;;;;;3.71;100.00;98749.81;5040854;28;20033;-73
2021/10/14 05:11:16;;;;;;;23.95;12.77;;;;;;;3.74;100.00;98746.66;5043107;28;20032;-74
2021/10/14 05:13:41;;;;;;;22.73;11.25;;;;;;;3.70;100.00;98735.47;5050290;28;20075;-76
2021/10/14 05:16:06;;;;;;;18.58;11.63;;;;;;;3.67;100.00;98752.16;5050631;28;20049;-75
2021/10/14 05:18:32;;;;;;;24.77;13.10;;;;;;;3.61;100.00;98757.66;5053121;28;20040;-75
2021/10/14 05:20:58;;;;;;;22.48;13.10;;;;;;;3.64;100.00;98744.50;5052873;28;20052;-75
2021/10/14 05:23:24;;;;;;;23.20;12.80;;;;;;;3.78;100.00;98750.56;5034469;28;20036;-74
2021/10/14 05:25:50;;;;;;;30.77;13.88;;;;;;;3.67;100.00;98738.63;5032316;28;20060;-74
2021/10/14 05:28:16;;;;;;;22.88;13.13;;;;;;;3.68;100.00;98744.88;5033271;28;20421;-73
2021/10/14 05:30:42;;;;;;;31.20;13.73;;;;;;;3.53;100.00;98744.50;5032438;28;20026;-74
2021/10/14 05:33:07;;;;;;;26.27;13.75;;;;;;;3.44;100.00;98744.00;5032909;28;20029;-74
2021/10/14 05:35:33;;;;;;;41.15;17.25;;;;;;;3.32;100.00;98745.81;5041196;28;20470;-73
2021/10/14 05:37:58;;;;;;;25.80;15.85;;;;;;;3.40;100.00;98758.19;5043008;28;20474;-75
2021/10/14 05:40:24;;;;;;;24.90;14.43;;;;;;;3.47;100.00;98767.88;5042302;28;20032;-74
2021/10/14 05:42:50;;;;;;;27.58;15.95;;;;;;;3.62;100.00;98767.44;5040957;28;20028;-73
2021/10/14 05:45:15;;;;;;;25.30;14.70;;;;;;;3.61;100.00;98753.09;5037920;28;20029;-78
2021/10/14 05:47:41;;;;;;;28.95;15.80;;;;;;;3.92;100.00;98786.31;5034241;28;20120;-74
2021/10/14 05:50:07;;;;;;;26.10;15.50;;;;;;;3.87;100.00;98776.22;5036176;28;20130;-75
2021/10/14 05:52:32;;;;;;;28.90;14.02;;;;;;;3.78;100.00;98788.44;5043006;28;20036;-74
2021/10/14 05:55:01;;;;;;;25.58;13.85;;;;;;;3.68;100.00;98783.56;5041570;28;20025;-74
2021/10/14 05:57:27;;;;;;;25.75;15.77;;;;;;;3.76;100.00;98785.13;5034815;28;20037;-75
2021/10/14 05:59:52;;;;;;;22.55;13.10;;;;;;;3.87;100.00;98795.16;5050667;28;20025;-74
2021/10/14 06:02:17;;;;;;;24.45;13.75;;;;;;;3.89;100.00;98784.09;5042402;28;20068;-76
2021/10/14 06:04:43;;;;;;;22.40;12.52;;;;;;;4.04;100.00;98789.91;5041331;28;20013;-75
2021/10/14 06:07:09;;;;;;;21.30;11.07;;;;;;;4.03;100.00;98797.19;5041435;28;20017;-74
2021/10/14 06:09:34;;;;;;;21.90;11.02;;;;;;;4.05;100.00;98799.66;5046022;28;20108;-76
2021/10/14 06:11:59;;;;;;;20.42;10.35;;;;;;;4.12;100.00;98803.09;5041068;28;20029;-75
2021/10/14 06:14:25;;;;;;;18.45;10.05;;;;;;;4.10;100.00;98800.59;5041318;28;20040;-76
2021/10/14 06:16:51;;;;;;;22.08;12.60;;;;;;;4.14;100.00;98804.50;5040849;28;20468;-75
2021/10/14 06:19:16;;;;;;;20.38;11.30;;;;;;;4.09;100.00;98807.09;5040837;28;20017;-76
2021/10/14 06:21:42;;;;;;;19.13;11.02;;;;;;;3.99;100.00;98814.94;5043154;28;20052;-76
2021/10/14 06:24:07;;;;;;;25.25;12.52;;;;;;;3.95;100.00;98802.94;5041168;28;20747;-74
2021/10/14 06:26:33;;;;;;;25.95;12.00;;;;;;;4.02;100.00;98817.19;5042220;28;20060;-74
2021/10/14 06:28:58;;;;;;;26.42;14.07;;;;;;;4.07;100.00;98825.44;5044999;28;20100;-74
2021/10/14 06:31:23;;;;;;;24.15;12.95;;;;;;;4.10;100.00;98822.25;5034800;28;20024;-74
2021/10/14 06:33:49;;;;;;;33.65;15.75;;;;;;;4.10;100.00;98814.13;5047356;28;20044;-75
2021/10/14 06:36:14;;;;;;;25.15;14.55;;;;;;;4.03;100.00;98818.84;5050894;28;20029;-74
2021/10/14 06:38:40;;;;;;;30.83;15.55;;;;;;;4.07;100.00;98828.13;5050982;28;20037;-75
2021/10/14 06:41:05;;;;;;;23.33;14.00;;;;;;;4.17;100.00;98836.53;5051575;28;20135;-75
2021/10/14 06:43:31;;;;;;;33.97;14.70;;;;;;;4.18;100.00;98838.19;5051535;28;20032;-76
2021/10/14 06:45:56;;;;;;;29.30;15.52;;;;;;;4.04;100.00;98836.72;5050126;28;20115;-74
2021/10/14 06:48:22;;;;;;;33.97;16.50;;;;;;;4.22;100.00;98842.06;5051627;28;20051;-77
2021/10/14 06:50:47;;;;;;;33.10;16.15;;;;;;;4.32;100.00;98845.00;5051500;28;20021;-75
2021/10/14 06:53:13;;;;;;;24.50;15.52;;;;;;;4.38;100.00;98842.44;5039091;28;20654;-75
2021/10/14 06:55:40;;;;;;;31.20;15.32;;;;;;;4.70;100.00;98844.56;5040743;28;20516;-75
2021/10/14 06:58:06;;;;;;;30.25;16.25;;;;;;;4.76;100.00;98840.13;5039475;28;20021;-75
2021/10/14 07:00:32;;;;;;;29.08;17.23;;;;;;;4.65;100.00;98840.94;5041813;28;20021;-76
2021/10/14 07:02:57;;;;;;;32.70;17.48;;;;;;;4.84;100.00;98842.47;5040584;28;20481;-75
2021/10/14 07:05:22;;;;;;;28.20;16.08;;;;;;;4.95;100.00;98847.03;5038822;28;20040;-75
2021/10/14 07:07:48;;;;;;;29.98;16.23;;;;;;;5.00;100.00;98847.16;5041501;28;20024;-74
2021/10/14 07:10:16;;;;;;;31.83;16.48;;;;;;;5.02;100.00;98833.38;5040878;28;20106;-75
2021/10/14 07:12:42;;;;;;;24.63;15.57;;;;;;;4.91;100.00;98848.59;5039664;28;20036;-74
2021/10/14 07:15:09;;;;;;;29.95;15.70;;;;;;;4.82;100.00;98845.41;5036552;28;20030;-75
2021/10/14 07:17:36;;;;;;;30.50;16.65;;;;;;;4.80;100.00;98838.56;5028192;28;20167;-75
2021/10/14 07:20:05;;;;;;;24.70;15.68;;;;;;;4.64;100.00;98839.28;5029847;28;20025;-76
2021/10/14 07:22:30;;;;;;;31.30;17.50;;;;;;;4.64;100.00;98837.41;5029671;28;20045;-75
2021/10/14 07:24:56;;;;;;;29.50;17.15;;;;;;;5.15;100.00;98843.97;5053596;28;20025;-78
2021/10/14 07:27:21;;;;;;;23.33;15.00;;;;;;;5.16;100.00;98838.31;5029932;28;20037;-76
2021/10/14 07:29:49;;;;;;;31.27;17.42;;;;;;;5.21;100.00;98846.53;5030461;28;20382;-76
2021/10/14 07:32:14;;;;;;;24.88;14.93;;;;;;;5.02;100.00;98845.03;5027528;28;20087;-76
2021/10/14 07:34:40;;;;;;;25.70;16.55;;;;;;;4.90;100.00;98852.34;5029519;28;20033;-76
2021/10/14 07:37:07;;;;;;;28.63;17.05;;;;;;;5.10;100.00;98858.25;5053436;28;20037;-75
2021/10/14 07:39:34;;;;;;;29.58;15.48;;;;;;;5.30;100.00;98855.94;5028821;28;20110;-78
2021/10/14 07:41:59;;;;;;;25.83;14.70;;;;;;;5.66;100.00;98856.69;5028258;28;20068;-77
2021/10/14 07:44:25;;;;;;;26.38;14.90;;;;;;;5.78;100.00;98861.00;5029248;28;20087;-76
2021/10/14 07:46:51;;;;;;;25.63;14.52;;;;;;;5.81;100.00;98870.56;5029472;28;20029;-77
2021/10/14 07:49:18;;;;;;;26.23;14.07;;;;;;;5.96;100.00;98865.44;5029516;28;20029;-77
2021/10/14 07:51:43;;;;;;;21.85;14.00;;;;;;;6.19;100.00;98861.78;5029208;28;20052;-76
2021/10/14 07:54:08;;;;;;;20.40;12.93;;;;;;;6.47;100.00;98870.72;5029246;28;20115;-75
2021/10/14 07:56:34;;;;;;;22.30;12.95;;;;;;;6.26;100.00;98868.72;5026435;28;20032;-75
2021/10/14 07:59:00;;;;;;;23.20;12.98;;;;;;;6.36;100.00;98868.06;5029209;28;20021;-78
2021/10/14 08:01:25;;;;;;;19.17;12.40;;;;;;;6.40;100.00;98847.47;5029773;28;20033;-77
2021/10/14 08:03:51;;;;;;;18.55;11.00;;;;;;;6.48;100.00;98863.41;5034999;28;20063;-76
2021/10/14 08:06:17;;;;;;;19.70;12.82;;;;;;;6.69;100.00;98859.94;5039816;28;20065;-75
2021/10/14 08:08:42;;;;;;;19.55;11.68;;;;;;;6.65;99.44;98857.94;5034906;28;20087;-76
2021/10/14 08:11:08;;;;;;;23.58;13.95;;;;;;;6.90;96.74;98861.06;5030757;28;20022;-76
2021/10/14 08:13:34;;;;;;;22.08;13.27;;;;;;;7.02;95.73;98856.34;5029994;28;20037;-75
2021/10/14 08:16:00;;;;;;;21.30;14.07;;;;;;;7.46;94.25;98852.59;5029195;28;20029;-75
2021/10/14 08:18:26;;;;;;;33.05;17.17;;;;;;;6.57;96.42;98864.63;5030193;28;20033;-75
2021/10/14 08:20:53;;;;;;;26.85;14.23;;;;;;;7.34;98.90;98861.94;5030297;28;20062;-77
2021/10/14 08:23:20;;;;;;;26.02;14.63;;;;;;;7.85;90.24;98866.13;5030458;28;20380;-76
2021/10/14 08:25:46;;;;;;;23.75;13.57;;;;;;;8.81;84.09;98861.59;5030705;28;20017;-76
2021/10/14 08:28:11;;;;;;;19.88;13.27;;;;;;;9.02;82.17;98863.41;5030571;28;20044;-79
2021/10/14 08:30:37;;;;;;;20.42;12.15;;;;;;;9.67;80.79;98857.47;5030802;28;20033;-77
2021/10/14 08:33:02;;;;;;;45.55;17.25;;;;;;;10.45;75.95;98863.72;5030394;28;20025;-75
2021/10/14 08:35:35;;;;;;;30.58;14.27;;;;;;;10.32;75.38;98881.47;5030542;28;20029;-76
2021/10/14 08:38:00;;;;;;;21.38;12.00;;;;;;;10.83;72.38;98871.41;5030463;28;20029;-77
2021/10/14 08:40:26;;;;;;;33.30;15.85;;;;;;;10.31;74.70;98874.34;5030578;28;20364;-75
2021/10/14 08:42:51;;;;;;;23.55;12.48;;;;;;;11.03;70.71;98862.31;5030440;28;20086;-76
2021/10/14 08:45:17;;;;;;;19.38;12.05;;;;;;;12.02;66.92;98872.47;5030404;28;20036;-77
2021/10/14 08:47:42;;;;;;;20.13;11.50;;;;;;;13.43;62.36;98871.38;5028782;28;20502;-78
2021/10/14 08:50:10;;;;;;;17.38;10.60;;;;;;;15.50;56.27;98865.59;5030446;28;20034;-77
2021/10/14 08:52:35;;;;;;;20.83;11.88;;;;;;;15.34;54.05;98862.28;5033009;28;20036;-78
2021/10/14 08:55:01;;;;;;;18.83;11.30;;;;;;;15.50;54.38;98868.38;5035741;28;20401;-76
2021/10/14 08:57:29;;;;;;;16.02;11.73;;;;;;;14.35;56.19;98863.63;5036453;28;20026;-77
2021/10/14 08:59:54;;;;;;;20.40;12.82;;;;;;;14.29;57.26;98868.38;5037741;28;20095;-75
2021/10/14 09:02:20;;;;;;;20.08;12.05;;;;;;;14.16;57.48;98862.81;5034201;28;20026;-77
2021/10/14 09:04:48;;;;;;;17.55;12.13;;;;;;;17.11;49.86;98867.53;5033508;28;20029;-78
2021/10/14 09:07:16;;;;;;;16.13;12.30;;;;;;;18.07;47.78;98867.66;5033470;28;20030;-78
2021/10/14 09:09:42;;;;;;;16.90;12.68;;;;;;;18.71;45.31;98874.31;5033500;28;20052;-78
2021/10/14 09:12:10;;;;;;;15.10;11.90;;;;;;;18.46;45.40;98863.16;5033164;28;20025;-78
2021/10/14 09:14:57;;;;;;;17.33;12.32;;;;;;;19.75;42.16;98856.34;5033271;28;20524;-78
2021/10/14 09:17:37;;;;;;;19.52;13.15;;;;;;;19.59;41.10;98857.22;5033204;28;20025;-76
2021/10/14 09:20:21;;;;;;;17.45;13.27;;;;;;;18.44;43.96;98848.84;5033389;28;20148;-77
2021/10/14 09:22:55;;;;;;;17.30;13.38;;;;;;;18.85;43.51;98838.09;5033083;28;20052;-77
2021/10/14 09:25:40;;;;;;;19.43;13.80;;;;;;;19.02;42.74;98848.34;5031672;28;20463;-78
2021/10/14 09:28:07;;;;;;;19.02;12.95;;;;;;;19.13;42.81;98847.69;5033068;28;20025;-78
2021/10/14 09:30:42;;;;;;;18.92;12.90;;;;;;;19.82;41.48;98844.72;5032095;28;20382;-77
2021/10/14 09:33:09;;;;;;;;;;;;;;;19.25;41.64;98845.06;5033696;28;20021;-77
2021/10/14 09:35:35;;;;;;;21.30;13.07;;;;;;;19.49;41.18;98846.47;5031522;28;20378;-76
2021/10/14 09:38:00;;;;;;;21.65;13.65;;;;;;;19.25;41.50;98836.72;5033086;28;20059;-77
2021/10/14 09:40:26;;;;;;;20.92;13.50;;;;;;;18.78;42.93;98837.78;5032854;28;20490;-77
2021/10/14 09:45:20;;;;;;;17.80;12.40;;;;;;;18.58;43.23;98833.69;5032828;28;20038;-75
2021/10/14 09:48:11;;;;;;;17.77;12.20;;;;;;;18.14;42.88;98833.94;5032695;28;20151;-74
2021/10/14 09:50:55;;;;;;;16.10;12.45;;;;;;;18.29;42.92;98822.44;5032637;28;20558;-77
2021/10/14 09:53:25;;;;;;;32.15;14.35;;;;;;;17.20;46.00;98814.25;5032702;28;20504;-76
2021/10/14 09:55:53;;;;;;;21.65;12.85;;;;;;;16.70;47.48;98806.09;5032623;28;20022;-77
2021/10/14 09:58:22;;;;;;;29.55;16.02;;;;;;;16.75;45.71;98803.22;5032560;28;20057;-75
2021/10/14 10:00:48;;;;;;;17.35;11.30;;;;;;;18.17;43.44;98806.44;5032703;28;20466;-77
2021/10/14 10:03:21;;;;;;;15.07;11.07;;;;;;;17.67;44.89;98803.22;5030469;28;20040;-75
2021/10/14 10:05:49;;;;;;;21.70;12.25;;;;;;;17.59;45.09;98805.97;5032422;28;20021;-77
2021/10/14 10:08:29;;;;;;;15.90;11.63;;;;;;;17.54;44.86;98803.31;5032211;28;20057;-75
2021/10/14 10:10:59;;;;;;;20.17;13.38;;;;;;;18.36;43.55;98797.00;5032222;28;20116;-75
2021/10/14 10:13:27;;;;;;;16.20;12.13;;;;;;;18.90;42.50;98796.34;5032297;28;20030;-78
2021/10/14 10:15:53;;;;;;;17.35;11.43;;;;;;;19.13;41.94;98800.53;5032270;28;20034;-77
2021/10/14 10:18:27;;;;;;;17.73;11.25;;;;;;;20.44;38.89;98802.34;5032232;28;20032;-76
2021/10/14 10:20:58;;;;;;;15.75;12.02;;;;;;;19.48;39.81;98798.50;5031934;28;20033;-77
2021/10/14 10:23:41;;;;;;;16.50;11.70;;;;;;;19.65;39.53;98794.81;5031635;28;20500;-77
2021/10/14 10:26:35;;;;;;;16.75;12.00;;;;;;;20.13;37.89;98797.97;5031779;28;20029;-77
2021/10/14 10:29:00;;;;;;;14.65;11.02;;;;;;;19.76;38.33;98790.53;5031852;28;20087;-77
2021/10/14 10:31:53;;;;;;;14.65;10.70;;;;;;;20.32;37.88;98791.16;5030944;28;20029;-77
2021/10/14 10:35:13;;;;;;;11.63;9.15;;;;;;;20.25;37.11;98786.94;5015210;28;20049;-76
2021/10/14 10:37:29;;;;;;;11.23;8.93;;;;;;;19.90;36.70;98781.94;5030620;28;20480;-77
2021/10/14 10:40:09;;;;;;;;;;;;;;;20.05;35.99;98782.16;5032430;28;20025;-76
2021/10/14 10:43:14;;;;;;;9.90;7.50;;;;;;;19.43;36.95;98773.69;5031553;28;19920;-75
2021/10/14 10:45:55;;;;;;;14.63;9.35;;;;;;;18.68;38.77;98763.25;5030126;28;20504;-76
2021/10/14 10:48:33;;;;;;;11.98;8.02;;;;;;;19.42;36.96;98765.72;5031477;28;20034;-78
2021/10/14 10:50:58;;;;;;;6.15;4.15;;;;;;;18.61;35.28;98754.63;5031809;28;20033;-76
2021/10/14 10:53:48;;;;;;;6.80;4.57;;;;;;;16.75;39.54;98756.25;5031520;28;20032;-74
2021/10/14 10:56:34;;;;;;;7.95;4.65;;;;;;;16.94;38.41;98761.56;5031673;28;20029;-76
2021/10/14 10:59:01;;;;;;;5.55;3.35;;;;;;;15.73;39.34;98740.44;5032102;28;20029;-75
2021/10/14 11:01:27;;;;;;;7.32;3.47;;;;;;;16.93;38.17;98755.22;5034207;28;20056;-75
2021/10/14 11:04:01;;;;;;;7.20;4.50;;;;;;;15.22;41.32;98737.91;5031487;28;20065;-75
2021/10/14 11:06:29;;;;;;;7.18;4.43;;;;;;;14.57;43.47;98742.69;5031366;28;20040;-74
2021/10/14 11:09:05;;;;;;;7.80;5.28;;;;;;;14.52;44.92;98740.06;5031339;28;20728;-74
2021/10/14 11:11:34;;;;;;;9.40;5.70;;;;;;;14.23;45.74;98736.66;5029917;28;20075;-77
2021/10/14 11:14:00;;;;;;;7.85;5.05;;;;;;;14.41;45.66;98724.81;5031089;28;20124;-76
2021/10/14 11:16:28;;;;;;;10.68;5.55;;;;;;;13.68;46.59;98717.13;5031025;28;20132;-76
2021/10/14 11:18:56;;;;;;;8.20;4.80;;;;;;;12.94;48.48;98711.47;5031093;28;20034;-75
2021/10/14 11:21:24;;;;;;;6.85;4.78;;;;;;;12.17;50.37;98714.13;5030858;28;20489;-75